Time;durP1;ratioP1;P1;durP2;ratioP2;P2;SDS_P1;SDS_P2;PMS_P1;PMS_P2;Temp;Humidity;BMP_temperature;BMP_pressure;BME280_temperature;BME280_humidity;BME280_pressure;Samples;Min_cycle;Max_cycle;Signal;HPM_P1;HPM_P2
2022/01/17 00:00:55;;;;;;;52.25;31.77;;;;;;;4.99;100.00;102939.56;5018954;28;20021;-76
2022/01/17 00:03:24;;;;;;;47.72;30.70;;;;;;;4.98;100.00;102949.38;5029508;28;20033;-76
2022/01/17 00:05:53;;;;;;;46.47;29.95;;;;;;;4.99;100.00;102947.56;5042124;28;20033;-76
2022/01/17 00:08:19;;;;;;;51.42;31.95;;;;;;;5.01;100.00;102959.09;5052580;28;20025;-76
2022/01/17 00:10:44;;;;;;;51.33;29.55;;;;;;;5.00;100.00;102960.00;5038946;28;20501;-76
2022/01/17 00:13:14;;;;;;;54.17;31.40;;;;;;;5.00;100.00;102968.84;5030159;28;20033;-76
2022/01/17 00:15:49;;;;;;;53.60;30.75;;;;;;;5.00;100.00;102968.84;5036147;28;20048;-76
2022/01/17 00:20:44;;;;;;;51.53;30.25;;;;;;;5.02;100.00;102976.84;5012536;28;20108;-76
2022/01/17 00:23:09;;;;;;;49.78;27.83;;;;;;;5.00;100.00;102976.00;5018397;28;20123;-76
2022/01/17 00:25:34;;;;;;;57.28;29.98;;;;;;;4.98;100.00;102973.34;5048813;28;20505;-76
2022/01/17 00:28:00;;;;;;;54.50;29.02;;;;;;;4.98;100.00;102985.78;5033328;28;20021;-76
2022/01/17 00:30:25;;;;;;;48.70;28.60;;;;;;;4.97;100.00;102990.22;5029637;28;20033;-76
2022/01/17 00:32:50;;;;;;;44.13;27.02;;;;;;;4.98;100.00;102980.44;5028777;28;20025;-76
2022/01/17 00:35:16;;;;;;;44.53;25.58;;;;;;;4.98;100.00;102968.03;5030147;28;20021;-76
2022/01/17 00:37:41;;;;;;;41.10;24.50;;;;;;;5.01;100.00;102972.44;5029050;28;20410;-76
2022/01/17 00:40:09;;;;;;;42.80;26.73;;;;;;;5.00;100.00;102962.66;5030023;28;20037;-76
2022/01/17 00:42:34;;;;;;;40.70;25.38;;;;;;;5.00;100.00;102960.88;5030984;28;20039;-76
2022/01/17 00:45:02;;;;;;;46.55;25.25;;;;;;;5.02;100.00;102968.84;5030948;28;20104;-76
2022/01/17 00:47:27;;;;;;;43.58;24.67;;;;;;;5.01;100.00;102965.31;5029875;28;20028;-76
2022/01/17 00:49:53;;;;;;;37.38;24.88;;;;;;;5.02;100.00;102968.84;5030063;28;20725;-76
2022/01/17 00:52:18;;;;;;;40.78;24.52;;;;;;;5.02;100.00;102979.50;5026748;28;20188;-76
2022/01/17 00:54:43;;;;;;;42.42;23.77;;;;;;;5.02;100.00;102982.16;5013951;28;20537;-76
2022/01/17 00:57:10;;;;;;;41.33;24.00;;;;;;;5.01;100.00;102983.09;5039108;28;20017;-76
2022/01/17 00:59:36;;;;;;;41.20;23.58;;;;;;;5.01;100.00;102975.09;5030550;28;20029;-76
2022/01/17 01:02:01;;;;;;;40.70;24.95;;;;;;;4.99;100.00;102983.13;5043575;28;20539;-77
2022/01/17 01:04:27;;;;;;;43.10;25.05;;;;;;;5.00;100.00;102981.31;5049485;28;20476;-77
2022/01/17 01:06:52;;;;;;;40.03;24.45;;;;;;;4.99;100.00;102976.88;5030294;28;20025;-76
2022/01/17 01:09:17;;;;;;;38.42;23.10;;;;;;;4.98;100.00;102981.34;5025073;28;20108;-76
2022/01/17 01:11:43;;;;;;;39.30;22.60;;;;;;;4.98;100.00;102993.75;5027695;28;20025;-76
2022/01/17 01:14:08;;;;;;;40.95;22.75;;;;;;;5.00;100.00;103002.63;5030372;28;20689;-76
2022/01/17 01:16:35;;;;;;;41.97;24.52;;;;;;;5.01;100.00;103007.06;5030430;28;20517;-76
2022/01/17 01:21:46;;;;;;;39.90;21.15;;;;;;;5.01;100.00;103007.06;5029882;28;20029;-76
2022/01/17 01:27:41;;;;;;;45.80;22.05;;;;;;;5.01;100.00;102993.75;5030532;28;20179;-76
2022/01/17 01:29:58;;;;;;;38.22;22.95;;;;;;;5.00;100.00;102999.97;5030068;28;20032;-76
2022/01/17 01:32:29;;;;;;;36.67;21.83;;;;;;;5.00;100.00;102994.63;5031232;28;20026;-76
2022/01/17 01:34:57;;;;;;;37.17;22.40;;;;;;;4.99;100.00;102984.88;5048356;28;20029;-76
2022/01/17 01:37:23;;;;;;;39.70;23.90;;;;;;;4.98;100.00;102977.78;5038242;28;20040;-76
2022/01/17 01:39:50;;;;;;;39.72;20.80;;;;;;;4.95;100.00;102972.50;5030402;28;20033;-76
2022/01/17 01:42:18;;;;;;;39.72;22.02;;;;;;;4.90;99.92;102980.56;5027460;28;20532;-76
2022/01/17 01:44:44;;;;;;;41.53;20.45;;;;;;;4.86;99.82;102978.84;5030149;28;20029;-76
2022/01/17 01:47:10;;;;;;;40.95;19.35;;;;;;;4.82;99.63;102991.34;5041632;28;20040;-76
2022/01/17 01:49:35;;;;;;;35.72;18.55;;;;;;;4.74;99.09;103001.22;5027493;28;20108;-76
2022/01/17 01:52:01;;;;;;;31.15;17.98;;;;;;;4.69;99.18;103011.06;5027730;28;20128;-76
2022/01/17 01:54:26;;;;;;;37.97;18.65;;;;;;;4.62;98.92;103012.94;5035362;28;20036;-76
2022/01/17 01:56:51;;;;;;;36.13;16.58;;;;;;;4.58;98.89;103021.00;5028201;28;20025;-76
2022/01/17 01:59:20;;;;;;;36.35;17.08;;;;;;;4.54;98.78;103013.03;5024511;28;20367;-76
2022/01/17 02:01:46;;;;;;;34.08;18.10;;;;;;;4.47;98.32;103011.34;5033763;28;20027;-76
2022/01/17 02:04:12;;;;;;;31.15;16.70;;;;;;;4.38;98.09;103006.16;5027321;28;20029;-76
2022/01/17 02:06:38;;;;;;;31.35;15.63;;;;;;;4.29;97.93;103001.81;5027806;28;20033;-76
2022/01/17 02:09:04;;;;;;;29.98;16.10;;;;;;;4.22;97.59;103008.13;5020865;28;20049;-76
2022/01/17 02:11:32;;;;;;;29.83;13.88;;;;;;;4.08;96.67;103008.28;5033643;28;20021;-76
2022/01/17 02:13:57;;;;;;;29.02;14.15;;;;;;;3.98;96.22;103017.25;5029706;28;20022;-76
2022/01/17 02:16:23;;;;;;;25.63;12.88;;;;;;;3.82;95.28;103012.09;5018524;28;20033;-76
2022/01/17 02:18:49;;;;;;;31.98;13.90;;;;;;;3.75;96.18;103007.75;5038464;28;20091;-76
2022/01/17 02:23:43;;;;;;;27.85;13.48;;;;;;;3.63;96.92;103010.50;5010818;28;20766;-76
2022/01/17 02:26:09;;;;;;;29.02;13.73;;;;;;;3.60;97.23;103021.16;5023758;28;20021;-76
2022/01/17 02:28:36;;;;;;;27.90;13.20;;;;;;;3.56;96.85;103011.44;5026912;28;20048;-76
2022/01/17 02:31:04;;;;;;;27.08;13.43;;;;;;;3.50;96.84;103004.44;5033520;28;20154;-76
2022/01/17 02:33:30;;;;;;;29.05;13.85;;;;;;;3.46;97.23;102998.25;5039513;28;20032;-76
2022/01/17 02:35:55;;;;;;;32.53;14.43;;;;;;;3.42;97.08;103001.81;5029761;28;20473;-76
2022/01/17 02:38:20;;;;;;;28.50;13.80;;;;;;;3.44;97.75;103002.72;5038555;28;20029;-76
2022/01/17 02:40:45;;;;;;;27.65;14.05;;;;;;;3.38;97.31;103005.41;5030067;28;20452;-76
2022/01/17 02:43:13;;;;;;;33.63;14.02;;;;;;;3.38;98.34;103010.72;5029115;28;20036;-76
2022/01/17 02:46:24;;;;;;;27.98;14.27;;;;;;;3.37;97.94;103010.72;5027557;28;20036;-76
2022/01/17 02:48:39;;;;;;;38.00;15.27;;;;;;;3.35;97.95;103005.44;5027703;28;20065;-76
2022/01/17 02:51:04;;;;;;;29.40;14.07;;;;;;;3.30;97.54;103002.81;5019037;28;20343;-76
2022/01/17 02:53:30;;;;;;;29.73;14.68;;;;;;;3.27;98.05;102999.31;5007123;28;20091;-76
2022/01/17 02:55:59;;;;;;;35.72;18.05;;;;;;;3.27;98.68;103007.28;5032070;28;20020;-76
2022/01/17 02:58:27;;;;;;;32.80;16.75;;;;;;;3.27;98.96;103008.16;5041452;28;20037;-76
2022/01/17 03:00:55;;;;;;;30.27;16.25;;;;;;;3.27;99.03;103005.50;5035689;28;20029;-76
2022/01/17 03:03:24;;;;;;;31.92;17.10;;;;;;;3.27;99.21;103013.47;5031990;28;20021;-75
2022/01/17 03:05:49;;;;;;;35.72;16.52;;;;;;;3.30;99.82;103008.13;5026701;28;20087;-76
2022/01/17 03:08:16;;;;;;;31.40;16.50;;;;;;;3.29;99.53;103006.38;5027568;28;20104;-76
2022/01/17 03:10:43;;;;;;;33.65;16.77;;;;;;;3.29;99.81;102995.75;5031831;28;20103;-76
2022/01/17 03:13:15;;;;;;;42.13;18.25;;;;;;;3.32;100.00;102995.72;5027792;28;20029;-76
2022/01/17 03:15:41;;;;;;;39.85;19.13;;;;;;;3.30;99.95;102993.97;5028819;28;20036;-76
2022/01/17 03:18:07;;;;;;;28.67;16.10;;;;;;;3.23;98.64;102994.91;5026024;28;20025;-76
2022/01/17 03:20:34;;;;;;;32.58;16.23;;;;;;;3.17;97.83;102994.97;5026847;28;20067;-76
2022/01/17 03:23:00;;;;;;;29.73;16.75;;;;;;;3.09;97.60;103003.88;5027670;28;20034;-76
2022/01/17 03:25:26;;;;;;;32.72;15.50;;;;;;;3.03;97.33;102997.72;5033956;28;20041;-76
2022/01/17 03:27:51;;;;;;;34.53;17.40;;;;;;;3.01;97.88;102997.72;5028066;28;20037;-76
2022/01/17 03:30:16;;;;;;;40.97;16.55;;;;;;;3.03;98.37;102993.31;5026305;28;20025;-76
2022/01/17 03:32:42;;;;;;;40.05;19.60;;;;;;;3.11;99.56;102988.78;5032137;28;20045;-76
2022/01/17 03:35:07;;;;;;;37.72;18.38;;;;;;;3.15;100.00;102990.53;5025505;28;20045;-76
2022/01/17 03:37:33;;;;;;;36.20;19.88;;;;;;;3.20;100.00;102992.28;5026580;28;20025;-76
2022/01/17 03:39:58;;;;;;;35.92;18.98;;;;;;;3.19;100.00;102998.47;5011803;28;20030;-76
2022/01/17 03:42:24;;;;;;;36.17;16.45;;;;;;;3.14;98.98;102998.53;5028000;28;20025;-76
2022/01/17 03:44:50;;;;;;;36.78;18.35;;;;;;;3.19;99.59;103001.13;5034650;28;20029;-76
2022/01/17 03:47:15;;;;;;;32.05;17.13;;;;;;;3.22;100.00;103001.13;5033164;28;20021;-76
2022/01/17 03:49:40;;;;;;;34.38;17.25;;;;;;;3.22;99.59;103009.97;5031174;28;20053;-76
2022/01/17 03:52:06;;;;;;;31.90;16.63;;;;;;;3.22;99.39;103003.78;5029383;28;20389;-76
2022/01/17 03:54:31;;;;;;;31.95;16.10;;;;;;;3.21;98.87;103008.22;5046446;28;20048;-76
2022/01/17 03:56:57;;;;;;;32.17;15.52;;;;;;;3.22;99.17;103003.78;5031439;28;20044;-76
2022/01/17 03:59:23;;;;;;;30.17;14.75;;;;;;;3.22;99.52;102995.78;5031587;28;20083;-76
2022/01/17 04:01:48;;;;;;;33.05;14.40;;;;;;;3.19;98.92;102995.81;5029829;28;20029;-76
2022/01/17 04:04:14;;;;;;;30.83;13.07;;;;;;;3.14;98.23;102996.72;5030503;28;20938;-76
2022/01/17 04:06:40;;;;;;;30.13;13.70;;;;;;;3.07;97.23;103004.78;5025805;28;20099;-76
2022/01/17 04:09:05;;;;;;;28.42;13.18;;;;;;;2.98;96.73;103013.69;5031748;28;20401;-76
2022/01/17 04:11:31;;;;;;;26.67;12.90;;;;;;;3.01;98.07;103010.13;5030740;28;20037;-76
2022/01/17 04:13:56;;;;;;;30.38;12.55;;;;;;;3.01;98.57;103010.13;5029909;28;20440;-76
2022/01/17 04:16:21;;;;;;;26.77;11.38;;;;;;;2.93;97.15;103012.84;5030942;28;20390;-76
2022/01/17 04:18:47;;;;;;;31.25;12.02;;;;;;;2.86;96.66;103013.78;5029872;28;20037;-76
2022/01/17 04:21:12;;;;;;;25.30;11.20;;;;;;;2.82;96.40;103009.38;5027332;28;20385;-76
2022/01/17 04:23:37;;;;;;;25.80;11.10;;;;;;;2.84;97.85;103018.19;5030851;28;20104;-76
2022/01/17 04:26:02;;;;;;;24.25;11.13;;;;;;;2.83;97.50;103016.47;5037894;28;20029;-76
2022/01/17 04:28:28;;;;;;;30.85;12.50;;;;;;;2.84;97.67;103023.50;5031246;28;20208;-76
2022/01/17 04:30:53;;;;;;;25.00;11.43;;;;;;;2.87;98.79;103026.13;5032570;28;20625;-76
2022/01/17 04:33:18;;;;;;;25.92;11.73;;;;;;;2.91;98.67;103038.53;5045210;28;20037;-76
2022/01/17 04:35:44;;;;;;;22.85;10.68;;;;;;;2.89;97.95;103033.22;5030203;28;20113;-76
2022/01/17 04:38:18;;;;;;;31.30;11.38;;;;;;;2.89;98.37;103029.69;5031459;28;20029;-76
2022/01/17 04:40:46;;;;;;;27.05;11.88;;;;;;;2.91;98.98;103026.09;5029316;28;20557;-76
2022/01/17 04:43:44;;;;;;;28.38;10.85;;;;;;;2.86;98.01;103037.69;5023157;28;20026;-76
2022/01/17 04:46:07;;;;;;;25.33;10.02;;;;;;;2.80;96.95;103027.97;5026608;28;20037;-76
2022/01/17 04:48:34;;;;;;;24.80;10.43;;;;;;;2.78;97.54;103024.41;5028743;28;20037;-76
2022/01/17 04:50:59;;;;;;;23.92;10.32;;;;;;;2.74;97.15;103020.03;5040918;28;20037;-76
2022/01/17 04:53:28;;;;;;;22.70;9.93;;;;;;;2.71;96.75;103028.00;5044717;28;20021;-76
2022/01/17 04:55:54;;;;;;;29.90;11.88;;;;;;;2.68;97.29;103028.91;5024042;28;20080;-76
2022/01/17 04:58:20;;;;;;;27.60;11.73;;;;;;;2.64;96.96;103032.47;5028590;28;20096;-76
2022/01/17 05:00:48;;;;;;;26.35;10.65;;;;;;;2.61;97.10;103019.22;5030332;28;20053;-76
2022/01/17 05:03:14;;;;;;;26.05;11.32;;;;;;;2.64;97.77;103031.59;5025210;28;20117;-76
2022/01/17 05:05:39;;;;;;;26.52;11.38;;;;;;;2.58;97.06;103037.81;5042622;28;20501;-76
2022/01/17 05:08:04;;;;;;;25.88;12.40;;;;;;;2.58;97.38;103033.38;5039981;28;20044;-76
2022/01/17 05:10:30;;;;;;;33.88;13.30;;;;;;;2.57;97.66;103031.59;5029469;28;20156;-76
2022/01/17 05:12:55;;;;;;;25.27;11.80;;;;;;;2.60;97.47;103041.34;5025313;28;20048;-76
2022/01/17 05:15:34;;;;;;;29.63;12.00;;;;;;;2.59;97.89;103045.78;5020400;28;20505;-76
2022/01/17 05:20:35;;;;;;;24.88;11.52;;;;;;;2.57;97.50;103063.47;5028814;28;20025;-76
2022/01/17 05:23:00;;;;;;;29.02;12.20;;;;;;;2.53;96.87;103058.19;5028543;28;20035;-76
2022/01/17 05:25:26;;;;;;;25.20;11.43;;;;;;;2.49;95.71;103059.06;5030902;28;20411;-76
2022/01/17 05:27:51;;;;;;;25.35;10.45;;;;;;;2.43;95.85;103063.53;5028337;28;20030;-76
2022/01/17 05:30:18;;;;;;;26.27;11.00;;;;;;;2.43;95.84;103066.19;5031847;28;20052;-76
2022/01/17 05:32:45;;;;;;;24.33;11.68;;;;;;;2.42;96.50;103066.19;5049454;28;20033;-76
2022/01/17 05:35:11;;;;;;;25.73;11.55;;;;;;;2.37;96.15;103065.31;5048091;28;20040;-76
2022/01/17 05:37:37;;;;;;;24.98;11.75;;;;;;;2.35;96.56;103069.75;5046739;28;20025;-76
2022/01/17 05:40:04;;;;;;;29.88;15.18;;;;;;;2.39;97.92;103072.38;5049539;28;20028;-76
2022/01/17 05:42:30;;;;;;;34.78;12.75;;;;;;;2.36;97.21;103068.88;5049703;28;20307;-76
2022/01/17 05:44:55;;;;;;;26.95;12.48;;;;;;;2.36;97.11;103075.06;5028646;28;20040;-76
2022/01/17 05:47:20;;;;;;;25.88;12.90;;;;;;;2.32;96.82;103086.56;5017167;28;20415;-76
2022/01/17 05:49:46;;;;;;;23.95;11.73;;;;;;;2.29;96.41;103081.25;5029281;28;20025;-76
2022/01/17 05:52:11;;;;;;;28.50;13.30;;;;;;;2.27;96.67;103069.78;5027322;28;20022;-76
2022/01/17 05:54:38;;;;;;;31.35;15.13;;;;;;;2.31;97.88;103071.50;5034499;28;20174;-76
2022/01/17 05:57:03;;;;;;;29.90;14.82;;;;;;;2.38;98.61;103070.59;5029783;28;20030;-76
2022/01/17 05:59:29;;;;;;;29.35;14.75;;;;;;;2.41;98.48;103065.28;5029797;28;20029;-76
2022/01/17 06:01:54;;;;;;;30.13;15.45;;;;;;;2.45;98.82;103069.69;5030371;28;20030;-76
2022/01/17 06:04:20;;;;;;;28.13;14.73;;;;;;;2.46;98.07;103089.19;5030496;28;20349;-76
2022/01/17 06:06:46;;;;;;;29.55;15.60;;;;;;;2.50;98.57;103080.28;5032286;28;20028;-76
2022/01/17 06:09:11;;;;;;;29.83;15.63;;;;;;;2.47;97.38;103079.44;5048230;28;20386;-76
2022/01/17 06:11:36;;;;;;;31.67;15.70;;;;;;;2.48;97.98;103076.78;5049679;28;20119;-76
2022/01/17 06:14:03;;;;;;;39.97;17.20;;;;;;;2.53;99.04;103072.31;5037662;28;20075;-76
2022/01/17 06:16:30;;;;;;;30.58;14.85;;;;;;;2.56;99.39;103088.28;5023716;28;20033;-76
2022/01/17 06:18:55;;;;;;;30.23;17.45;;;;;;;2.59;99.15;103087.34;5027293;28;20068;-76
2022/01/17 06:21:20;;;;;;;32.22;17.23;;;;;;;2.60;99.20;103083.81;5027426;28;20057;-76
2022/01/17 06:23:45;;;;;;;37.80;17.77;;;;;;;2.58;98.76;103081.16;5028917;28;20033;-76
2022/01/17 06:26:11;;;;;;;29.35;16.30;;;;;;;2.60;99.03;103090.00;5033481;28;20028;-76
2022/01/17 06:28:36;;;;;;;32.40;17.42;;;;;;;2.62;99.67;103089.97;5036422;28;20115;-76
2022/01/17 06:31:01;;;;;;;29.65;15.35;;;;;;;2.59;98.77;103090.91;5034984;28;20033;-76
2022/01/17 06:33:27;;;;;;;33.20;16.63;;;;;;;2.61;99.75;103085.59;5030858;28;20256;-76
2022/01/17 06:35:52;;;;;;;30.63;15.88;;;;;;;2.56;98.40;103088.28;5026542;28;20569;-76
2022/01/17 06:38:18;;;;;;;34.90;18.17;;;;;;;2.58;98.83;103080.28;5028364;28;20033;-76
2022/01/17 06:40:43;;;;;;;33.28;17.80;;;;;;;2.60;98.93;103099.75;5027307;28;20026;-76
2022/01/17 06:43:10;;;;;;;32.35;16.58;;;;;;;2.59;98.48;103114.81;5024468;28;20052;-76
2022/01/17 06:45:36;;;;;;;35.50;17.25;;;;;;;2.60;98.86;103116.53;5022624;28;20021;-76
2022/01/17 06:48:02;;;;;;;32.03;16.42;;;;;;;2.59;98.67;103103.28;5027828;28;20132;-76
2022/01/17 06:50:28;;;;;;;33.97;17.65;;;;;;;2.61;98.85;103104.16;5024068;28;20033;-76
2022/01/17 06:52:53;;;;;;;33.90;17.88;;;;;;;2.67;99.44;103103.28;5045267;28;20081;-76
2022/01/17 06:55:19;;;;;;;37.60;17.85;;;;;;;2.71;99.37;103110.31;5016712;28;20033;-76
2022/01/17 06:57:44;;;;;;;36.45;18.70;;;;;;;2.75;99.74;103126.25;5018181;28;20108;-76
2022/01/17 07:00:11;;;;;;;34.30;19.35;;;;;;;2.80;99.95;103127.09;5026633;28;20025;-76
2022/01/17 07:02:37;;;;;;;38.65;19.70;;;;;;;2.82;99.71;103147.47;5021011;28;20025;-76
2022/01/17 07:05:03;;;;;;;33.65;19.90;;;;;;;2.83;100.00;103139.50;5025021;28;20033;-76
2022/01/17 07:07:29;;;;;;;38.70;19.80;;;;;;;2.80;99.66;103144.81;5028410;28;20021;-76
2022/01/17 07:09:54;;;;;;;34.33;18.75;;;;;;;2.83;99.59;103167.84;5027998;28;20057;-76
2022/01/17 07:12:19;;;;;;;38.22;18.67;;;;;;;2.83;99.74;103154.56;5026266;28;20036;-76
2022/01/17 07:14:44;;;;;;;34.83;19.23;;;;;;;2.82;99.53;103142.16;5024809;28;20029;-76
2022/01/17 07:17:11;;;;;;;35.05;19.00;;;;;;;2.82;99.81;103126.22;5021911;28;20025;-76
2022/01/17 07:19:37;;;;;;;33.55;18.40;;;;;;;2.80;99.58;103119.13;5026780;28;20033;-76
2022/01/17 07:22:06;;;;;;;32.30;18.13;;;;;;;2.80;99.54;103113.81;5026679;28;20017;-76
2022/01/17 07:24:32;;;;;;;39.30;18.77;;;;;;;2.79;99.40;103101.41;5026824;28;20032;-76
2022/01/17 07:26:57;;;;;;;31.38;17.75;;;;;;;2.79;99.35;103093.47;5026855;28;21145;-76
2022/01/17 07:29:24;;;;;;;31.45;17.58;;;;;;;2.79;99.19;103090.81;5028071;28;20061;-76
2022/01/17 07:31:49;;;;;;;30.23;17.63;;;;;;;2.80;99.60;103091.69;5027614;28;20140;-76
2022/01/17 07:34:15;;;;;;;32.15;17.35;;;;;;;2.83;100.00;103106.75;5023489;28;20482;-77
2022/01/17 07:36:40;;;;;;;30.33;15.73;;;;;;;2.82;100.00;103113.81;5022360;28;20040;-76
2022/01/17 07:39:05;;;;;;;35.90;18.35;;;;;;;2.83;99.72;103122.69;5027501;28;20033;-76
2022/01/17 07:41:31;;;;;;;33.25;17.10;;;;;;;2.86;99.77;103120.00;5028602;28;20068;-76
2022/01/17 07:43:56;;;;;;;30.27;16.35;;;;;;;2.84;99.59;103138.59;5024549;28;20397;-76
2022/01/17 07:46:31;;;;;;;31.27;16.38;;;;;;;2.85;99.64;103126.19;5022614;28;20041;-76
2022/01/17 07:49:13;;;;;;;33.78;16.17;;;;;;;2.85;99.31;103126.19;5025365;28;20052;-76
2022/01/17 07:51:43;;;;;;;39.30;17.45;;;;;;;2.86;99.74;103136.81;5022998;28;20029;-76
2022/01/17 07:54:11;;;;;;;32.38;17.60;;;;;;;2.90;100.00;103140.34;5021165;28;20029;-76
2022/01/17 07:56:37;;;;;;;38.30;19.40;;;;;;;2.90;100.00;103143.88;5028916;28;20037;-77
2022/01/17 07:59:04;;;;;;;36.47;19.55;;;;;;;2.93;100.00;103151.84;5025735;28;20104;-76
2022/01/17 08:01:30;;;;;;;33.97;18.88;;;;;;;2.94;100.00;103161.59;5023282;28;20108;-76
2022/01/17 08:03:55;;;;;;;35.08;19.92;;;;;;;2.98;100.00;103170.41;5020653;28;20156;-76
2022/01/17 08:06:20;;;;;;;38.45;17.48;;;;;;;2.98;100.00;103173.06;5023086;28;20123;-76
2022/01/17 08:08:47;;;;;;;36.10;17.45;;;;;;;2.96;99.66;103178.38;5024133;28;20013;-76
2022/01/17 08:11:12;;;;;;;31.17;15.48;;;;;;;2.92;99.34;103175.75;5056268;28;20528;-76
2022/01/17 08:13:37;;;;;;;33.15;16.80;;;;;;;2.91;99.18;103189.91;5023667;28;20025;-76
2022/01/17 08:16:03;;;;;;;35.63;18.52;;;;;;;3.00;100.00;103194.31;5021119;28;20514;-76
2022/01/17 08:18:29;;;;;;;32.70;18.15;;;;;;;2.99;100.00;103193.44;5024911;28;20042;-76
2022/01/17 08:20:55;;;;;;;33.03;18.02;;;;;;;3.03;100.00;103173.94;5025293;28;20078;-76
2022/01/17 08:23:20;;;;;;;37.22;19.02;;;;;;;3.04;99.95;103172.16;5021799;28;20129;-76
2022/01/17 08:25:46;;;;;;;30.80;16.58;;;;;;;3.09;100.00;103176.56;5024117;28;20393;-76
2022/01/17 08:28:11;;;;;;;36.75;19.00;;;;;;;3.18;100.00;103177.41;5022846;28;20025;-76
2022/01/17 08:30:36;;;;;;;34.40;18.17;;;;;;;3.23;100.00;103180.94;5027042;28;20029;-76
2022/01/17 08:33:02;;;;;;;31.27;18.05;;;;;;;3.32;100.00;103181.78;5035581;28;20029;-76
2022/01/17 08:35:28;;;;;;;31.98;17.52;;;;;;;3.41;100.00;103188.81;5024612;28;20337;-76
2022/01/17 08:37:53;;;;;;;34.65;17.77;;;;;;;3.47;100.00;103185.22;5027523;28;20552;-76
2022/01/17 08:40:20;;;;;;;36.80;18.77;;;;;;;3.55;100.00;103187.84;5027836;28;20477;-76
2022/01/17 08:42:46;;;;;;;31.30;18.08;;;;;;;3.58;100.00;103194.03;5025908;28;20065;-76
2022/01/17 08:45:14;;;;;;;30.67;17.77;;;;;;;3.65;100.00;103173.59;5026738;28;20053;-76
2022/01/17 08:47:39;;;;;;;33.78;17.77;;;;;;;3.70;100.00;103166.47;5025995;28;20028;-76
2022/01/17 08:50:06;;;;;;;33.50;18.23;;;;;;;3.76;100.00;103161.09;5027113;28;20674;-76
2022/01/17 08:52:32;;;;;;;35.47;18.38;;;;;;;3.80;100.00;103162.84;5020843;28;20135;-76
2022/01/17 08:54:58;;;;;;;32.17;18.00;;;;;;;3.85;100.00;103169.03;5024421;28;20457;-76
2022/01/17 08:57:24;;;;;;;32.90;17.33;;;;;;;3.89;100.00;103171.66;5027302;28;20084;-76
2022/01/17 08:59:50;;;;;;;33.38;16.40;;;;;;;3.93;100.00;103173.41;5028283;28;20021;-76
2022/01/17 09:02:16;;;;;;;32.10;16.55;;;;;;;3.97;100.00;103176.03;5032709;28;20330;-76
2022/01/17 09:04:42;;;;;;;34.28;17.48;;;;;;;4.02;100.00;103183.97;5021190;28;20116;-76
2022/01/17 09:07:12;;;;;;;33.38;15.65;;;;;;;4.05;100.00;103178.59;5026259;28;20030;-76
2022/01/17 09:09:39;;;;;;;35.03;17.38;;;;;;;4.09;100.00;103185.69;5027095;28;20411;-76
2022/01/17 09:12:06;;;;;;;32.30;16.48;;;;;;;4.13;100.00;103187.41;5024006;28;20423;-76
2022/01/17 09:14:32;;;;;;;28.75;15.23;;;;;;;4.17;100.00;103188.25;5023379;28;20638;-76
2022/01/17 09:16:57;;;;;;;33.53;16.83;;;;;;;4.19;100.00;103179.38;5026166;28;20135;-76
2022/01/17 09:19:22;;;;;;;32.30;14.57;;;;;;;4.24;100.00;103189.09;5029023;28;21763;-76
2022/01/17 09:21:48;;;;;;;34.13;15.85;;;;;;;4.27;99.73;103215.69;5031173;28;20485;-76
2022/01/17 09:24:13;;;;;;;35.63;16.92;;;;;;;4.31;99.81;103228.09;5023912;28;20494;-77
2022/01/17 09:26:38;;;;;;;31.38;13.18;;;;;;;4.35;99.74;103228.03;5027058;28;20112;-76
2022/01/17 09:29:04;;;;;;;29.85;14.05;;;;;;;4.38;99.97;103232.47;5026422;28;20025;-76
2022/01/17 09:31:30;;;;;;;33.35;13.93;;;;;;;4.42;99.50;103228.84;5036513;28;20430;-76
2022/01/17 09:33:55;;;;;;;30.90;13.82;;;;;;;4.46;99.24;103241.25;5048628;28;20029;-76
2022/01/17 09:36:21;;;;;;;29.85;12.77;;;;;;;4.50;99.29;103229.69;5038708;28;20547;-76
2022/01/17 09:38:46;;;;;;;30.05;13.07;;;;;;;4.55;99.46;103221.63;5022206;28;20029;-76
2022/01/17 09:41:11;;;;;;;32.85;13.43;;;;;;;4.60;99.42;103225.16;5024845;28;20418;-76
2022/01/17 09:43:37;;;;;;;26.77;11.25;;;;;;;4.63;98.69;103232.22;5025513;28;20060;-76
2022/01/17 09:46:02;;;;;;;28.58;12.10;;;;;;;4.67;98.58;103233.94;5022356;28;20029;-76
2022/01/17 09:48:37;;;;;;;28.25;11.77;;;;;;;4.70;98.76;103237.47;5027644;28;20048;-76
2022/01/17 09:51:16;;;;;;;30.38;12.40;;;;;;;4.73;98.29;103241.91;5027050;28;20052;-76
2022/01/17 09:53:42;;;;;;;27.85;10.65;;;;;;;4.76;98.06;103241.88;5027579;28;20033;-76
2022/01/17 09:56:08;;;;;;;24.17;10.80;;;;;;;4.79;98.19;103259.56;5029582;28;20052;-76
2022/01/17 09:58:39;;;;;;;29.08;11.48;;;;;;;4.80;98.12;103256.94;5028173;28;20025;-76
2022/01/17 10:01:04;;;;;;;33.35;10.75;;;;;;;4.82;97.70;103267.56;5033595;28;20035;-76
2022/01/17 10:03:30;;;;;;;24.30;10.57;;;;;;;4.84;98.03;103289.72;5036322;28;20100;-76
2022/01/17 10:05:56;;;;;;;24.50;9.82;;;;;;;4.84;97.79;103261.28;5024218;28;20030;-76
2022/01/17 10:08:22;;;;;;;30.85;9.38;;;;;;;4.85;97.41;103265.75;5010633;28;20402;-76
2022/01/17 10:11:01;;;;;;;26.30;10.73;;;;;;;4.86;97.86;103280.84;5013175;28;20390;-76
2022/01/17 10:13:30;;;;;;;33.55;10.43;;;;;;;4.86;97.03;103261.28;5021374;28;20641;-76
2022/01/17 10:15:59;;;;;;;24.85;9.85;;;;;;;4.89;97.37;103258.56;5022503;28;20383;-76
2022/01/17 10:18:31;;;;;;;25.92;9.88;;;;;;;4.90;97.08;103269.25;5020763;28;20033;-76
2022/01/17 10:21:11;;;;;;;26.52;9.75;;;;;;;4.92;97.45;103268.31;5028436;28;20071;-76
2022/01/17 10:24:09;;;;;;;26.63;9.23;;;;;;;4.95;97.36;103252.31;5019899;28;20454;-76
2022/01/17 10:37:20;;;;;;;27.52;9.13;;;;;;;5.07;96.84;103282.38;5028304;28;20040;-76
2022/01/17 10:39:53;;;;;;;22.45;8.63;;;;;;;5.10;96.46;103276.13;5028392;28;20045;-76
2022/01/17 10:42:45;;;;;;;31.77;9.65;;;;;;;5.13;96.26;103273.44;5034919;28;20021;-76
2022/01/17 10:45:14;;;;;;;30.13;9.18;;;;;;;5.13;95.69;103288.56;5030985;28;20033;-76
2022/01/17 10:47:43;;;;;;;31.10;8.25;;;;;;;5.14;96.27;103272.53;5027971;28;20084;-76
2022/01/17 10:50:24;;;;;;;23.60;8.67;;;;;;;5.17;96.25;103290.25;5026097;28;20036;-76
2022/01/17 10:52:53;;;;;;;27.40;8.57;;;;;;;5.14;95.71;103269.88;5008789;28;20379;-76
2022/01/17 10:55:27;;;;;;;22.58;8.40;;;;;;;5.18;95.92;103289.38;5009819;28;20087;-76
2022/01/17 10:58:17;;;;;;;28.50;7.70;;;;;;;5.21;96.39;103295.56;5009049;28;20025;-76
2022/01/17 11:00:48;;;;;;;26.42;7.93;;;;;;;5.24;96.04;103300.88;5024226;28;20033;-76
2022/01/17 11:03:16;;;;;;;28.30;8.23;;;;;;;5.27;96.05;103309.72;5048655;28;20477;-76
2022/01/17 11:05:47;;;;;;;27.77;7.45;;;;;;;5.27;95.04;103313.28;5046569;28;20024;-76
2022/01/17 11:08:15;;;;;;;24.70;8.02;;;;;;;5.33;95.67;103304.31;5037120;28;20029;-76
2022/01/17 11:10:44;;;;;;;28.05;8.05;;;;;;;5.35;95.16;103322.06;5026762;28;20412;-76
2022/01/17 11:13:12;;;;;;;29.17;8.82;;;;;;;5.36;95.22;103323.84;5026917;28;20095;-76
2022/01/17 11:15:40;;;;;;;26.25;8.90;;;;;;;5.40;95.26;103327.34;5026139;28;20437;-76
2022/01/17 11:18:19;;;;;;;22.58;7.00;;;;;;;5.41;94.60;103319.31;5027933;28;20469;-76
2022/01/17 11:20:46;;;;;;;27.60;7.95;;;;;;;5.45;94.33;103321.94;5029111;28;20029;-76
2022/01/17 11:23:11;;;;;;;23.48;8.20;;;;;;;5.48;94.59;103320.13;5026569;28;20025;-76
2022/01/17 11:25:41;;;;;;;28.83;8.93;;;;;;;5.52;94.96;103311.19;5025253;28;20088;-76
2022/01/17 11:28:08;;;;;;;23.42;7.50;;;;;;;5.55;94.61;103305.81;5014850;28;20025;-76
2022/01/17 11:30:34;;;;;;;23.73;7.18;;;;;;;5.58;93.96;103292.44;5026863;28;20443;-77
2022/01/17 11:33:04;;;;;;;28.83;8.98;;;;;;;5.65;94.26;103303.03;5027322;28;20465;-78
2022/01/17 11:35:30;;;;;;;27.35;7.07;;;;;;;5.67;94.12;103295.91;5027945;28;20043;-78
2022/01/17 11:37:58;;;;;;;23.55;7.50;;;;;;;5.68;93.95;103278.97;5022977;28;20052;-77
2022/01/17 11:40:33;;;;;;;25.20;6.80;;;;;;;5.69;93.57;103278.06;5011800;28;20029;-77